sensor_id;sensor_type;location;lat;lon;timestamp;P1;durP1;ratioP1;P2;durP2;ratioP2
6223;SDS011;3145;42.726;23.342;2023-09-08T00:02:09;15.23;;;12.37;;
6223;SDS011;3145;42.726;23.342;2023-09-08T00:04:36;12.27;;;11.13;;
6223;SDS011;3145;42.726;23.342;2023-09-08T00:07:03;13.63;;;12.40;;
6223;SDS011;3145;42.726;23.342;2023-09-08T00:09:31;12.00;;;10.90;;
6223;SDS011;3145;42.726;23.342;2023-09-08T00:11:58;14.57;;;10.97;;
6223;SDS011;3145;42.726;23.342;2023-09-08T00:14:25;13.63;;;12.27;;
6223;SDS011;3145;42.726;23.342;2023-09-08T00:16:51;13.53;;;12.33;;
6223;SDS011;3145;42.726;23.342;2023-09-08T00:19:19;13.87;;;11.30;;
6223;SDS011;3145;42.726;23.342;2023-09-08T00:21:46;13.17;;;11.87;;
6223;SDS011;3145;42.726;23.342;2023-09-08T00:24:14;12.30;;;11.10;;
6223;SDS011;3145;42.726;23.342;2023-09-08T00:26:42;12.60;;;11.23;;
6223;SDS011;3145;42.726;23.342;2023-09-08T00:29:08;11.33;;;10.17;;
6223;SDS011;3145;42.726;23.342;2023-09-08T00:31:35;12.20;;;10.63;;
6223;SDS011;3145;42.726;23.342;2023-09-08T00:34:02;11.73;;;10.63;;
6223;SDS011;3145;42.726;23.342;2023-09-08T00:36:29;10.90;;;9.90;;
6223;SDS011;3145;42.726;23.342;2023-09-08T00:38:55;11.93;;;10.23;;
6223;SDS011;3145;42.726;23.342;2023-09-08T00:41:22;10.33;;;9.03;;
6223;SDS011;3145;42.726;23.342;2023-09-08T00:43:51;9.20;;;8.27;;
6223;SDS011;3145;42.726;23.342;2023-09-08T00:46:17;12.90;;;10.43;;
6223;SDS011;3145;42.726;23.342;2023-09-08T00:48:44;10.00;;;9.17;;
6223;SDS011;3145;42.726;23.342;2023-09-08T00:51:11;10.93;;;9.30;;
6223;SDS011;3145;42.726;23.342;2023-09-08T00:53:38;10.47;;;8.87;;
6223;SDS011;3145;42.726;23.342;2023-09-08T00:56:05;14.40;;;10.17;;
6223;SDS011;3145;42.726;23.342;2023-09-08T00:58:35;10.17;;;9.07;;
6223;SDS011;3145;42.726;23.342;2023-09-08T01:01:03;10.00;;;9.07;;
6223;SDS011;3145;42.726;23.342;2023-09-08T01:03:30;10.23;;;8.67;;
6223;SDS011;3145;42.726;23.342;2023-09-08T01:05:57;9.47;;;8.60;;
6223;SDS011;3145;42.726;23.342;2023-09-08T01:08:24;9.17;;;8.13;;
6223;SDS011;3145;42.726;23.342;2023-09-08T01:10:52;9.47;;;8.50;;
6223;SDS011;3145;42.726;23.342;2023-09-08T01:13:19;6.83;;;6.13;;
6223;SDS011;3145;42.726;23.342;2023-09-08T01:15:45;8.47;;;7.67;;
6223;SDS011;3145;42.726;23.342;2023-09-08T01:18:13;12.20;;;8.20;;
6223;SDS011;3145;42.726;23.342;2023-09-08T01:20:45;9.20;;;7.97;;
6223;SDS011;3145;42.726;23.342;2023-09-08T01:23:28;9.17;;;8.30;;
6223;SDS011;3145;42.726;23.342;2023-09-08T01:26:09;10.50;;;7.90;;
6223;SDS011;3145;42.726;23.342;2023-09-08T01:28:39;11.13;;;8.07;;
6223;SDS011;3145;42.726;23.342;2023-09-08T01:31:06;9.73;;;8.20;;
6223;SDS011;3145;42.726;23.342;2023-09-08T01:33:34;8.23;;;7.43;;
6223;SDS011;3145;42.726;23.342;2023-09-08T01:36:02;10.73;;;8.80;;
6223;SDS011;3145;42.726;23.342;2023-09-08T01:38:29;9.53;;;8.73;;
6223;SDS011;3145;42.726;23.342;2023-09-08T01:40:56;9.03;;;7.87;;
6223;SDS011;3145;42.726;23.342;2023-09-08T01:43:24;9.57;;;8.53;;
6223;SDS011;3145;42.726;23.342;2023-09-08T01:45:50;9.83;;;8.87;;
6223;SDS011;3145;42.726;23.342;2023-09-08T01:48:17;9.43;;;8.53;;
6223;SDS011;3145;42.726;23.342;2023-09-08T01:50:44;10.03;;;9.17;;
6223;SDS011;3145;42.726;23.342;2023-09-08T01:53:11;9.27;;;8.47;;
6223;SDS011;3145;42.726;23.342;2023-09-08T01:55:37;10.33;;;9.10;;
6223;SDS011;3145;42.726;23.342;2023-09-08T01:58:04;12.43;;;9.20;;
6223;SDS011;3145;42.726;23.342;2023-09-08T02:00:32;10.17;;;9.23;;
6223;SDS011;3145;42.726;23.342;2023-09-08T02:02:59;10.23;;;9.33;;
6223;SDS011;3145;42.726;23.342;2023-09-08T02:05:26;10.53;;;9.50;;
6223;SDS011;3145;42.726;23.342;2023-09-08T02:07:52;12.70;;;9.70;;
6223;SDS011;3145;42.726;23.342;2023-09-08T02:10:20;11.57;;;10.10;;
6223;SDS011;3145;42.726;23.342;2023-09-08T02:12:47;11.10;;;10.00;;
6223;SDS011;3145;42.726;23.342;2023-09-08T02:15:14;12.23;;;10.10;;
6223;SDS011;3145;42.726;23.342;2023-09-08T02:17:42;11.70;;;9.73;;
6223;SDS011;3145;42.726;23.342;2023-09-08T02:20:09;12.17;;;10.87;;
6223;SDS011;3145;42.726;23.342;2023-09-08T02:22:36;12.27;;;10.60;;
6223;SDS011;3145;42.726;23.342;2023-09-08T02:25:03;11.60;;;10.60;;
6223;SDS011;3145;42.726;23.342;2023-09-08T02:27:31;12.00;;;10.83;;
6223;SDS011;3145;42.726;23.342;2023-09-08T02:29:57;12.07;;;10.87;;
6223;SDS011;3145;42.726;23.342;2023-09-08T02:32:24;11.60;;;10.47;;
6223;SDS011;3145;42.726;23.342;2023-09-08T02:34:52;10.83;;;9.83;;
6223;SDS011;3145;42.726;23.342;2023-09-08T02:37:19;11.10;;;10.07;;
6223;SDS011;3145;42.726;23.342;2023-09-08T02:39:45;12.87;;;11.10;;
6223;SDS011;3145;42.726;23.342;2023-09-08T02:42:12;12.23;;;10.17;;
6223;SDS011;3145;42.726;23.342;2023-09-08T02:44:39;10.47;;;9.50;;
6223;SDS011;3145;42.726;23.342;2023-09-08T02:47:06;11.73;;;10.60;;
6223;SDS011;3145;42.726;23.342;2023-09-08T02:49:33;11.50;;;10.40;;
6223;SDS011;3145;42.726;23.342;2023-09-08T02:52:01;10.07;;;9.23;;
6223;SDS011;3145;42.726;23.342;2023-09-08T02:54:28;13.27;;;10.43;;
6223;SDS011;3145;42.726;23.342;2023-09-08T02:56:55;11.87;;;10.17;;
6223;SDS011;3145;42.726;23.342;2023-09-08T02:59:21;14.50;;;11.43;;
6223;SDS011;3145;42.726;23.342;2023-09-08T03:01:48;11.80;;;10.50;;
6223;SDS011;3145;42.726;23.342;2023-09-08T03:04:15;10.90;;;9.80;;
6223;SDS011;3145;42.726;23.342;2023-09-08T03:06:41;11.00;;;9.67;;
6223;SDS011;3145;42.726;23.342;2023-09-08T03:09:10;10.40;;;9.50;;
6223;SDS011;3145;42.726;23.342;2023-09-08T03:11:36;15.70;;;10.90;;
6223;SDS011;3145;42.726;23.342;2023-09-08T03:14:03;11.27;;;10.27;;
6223;SDS011;3145;42.726;23.342;2023-09-08T03:16:30;11.53;;;10.40;;
6223;SDS011;3145;42.726;23.342;2023-09-08T03:18:57;13.77;;;11.47;;
6223;SDS011;3145;42.726;23.342;2023-09-08T03:21:24;14.40;;;11.20;;
6223;SDS011;3145;42.726;23.342;2023-09-08T03:23:51;19.13;;;12.53;;
6223;SDS011;3145;42.726;23.342;2023-09-08T03:26:19;17.40;;;11.23;;
6223;SDS011;3145;42.726;23.342;2023-09-08T03:28:45;13.77;;;10.77;;
6223;SDS011;3145;42.726;23.342;2023-09-08T03:31:12;13.17;;;11.27;;
6223;SDS011;3145;42.726;23.342;2023-09-08T03:33:39;11.97;;;10.57;;
6223;SDS011;3145;42.726;23.342;2023-09-08T03:36:06;13.90;;;10.63;;
6223;SDS011;3145;42.726;23.342;2023-09-08T03:38:33;13.77;;;11.43;;
6223;SDS011;3145;42.726;23.342;2023-09-08T03:41:02;11.80;;;10.70;;
6223;SDS011;3145;42.726;23.342;2023-09-08T03:43:30;11.40;;;10.30;;
6223;SDS011;3145;42.726;23.342;2023-09-08T03:45:56;11.50;;;10.50;;
6223;SDS011;3145;42.726;23.342;2023-09-08T03:48:23;11.20;;;10.20;;
6223;SDS011;3145;42.726;23.342;2023-09-08T03:50:50;12.30;;;10.97;;
6223;SDS011;3145;42.726;23.342;2023-09-08T03:53:16;17.47;;;11.27;;
6223;SDS011;3145;42.726;23.342;2023-09-08T03:55:43;12.43;;;11.00;;
6223;SDS011;3145;42.726;23.342;2023-09-08T03:58:10;12.03;;;10.83;;
6223;SDS011;3145;42.726;23.342;2023-09-08T04:00:38;14.33;;;11.03;;
6223;SDS011;3145;42.726;23.342;2023-09-08T04:03:05;15.77;;;11.30;;
6223;SDS011;3145;42.726;23.342;2023-09-08T04:05:31;15.80;;;10.23;;
6223;SDS011;3145;42.726;23.342;2023-09-08T04:07:58;13.47;;;11.00;;
6223;SDS011;3145;42.726;23.342;2023-09-08T04:10:25;15.77;;;11.17;;
6223;SDS011;3145;42.726;23.342;2023-09-08T04:12:52;11.90;;;10.47;;
6223;SDS011;3145;42.726;23.342;2023-09-08T04:15:18;20.90;;;11.17;;
6223;SDS011;3145;42.726;23.342;2023-09-08T04:17:46;12.33;;;11.07;;
6223;SDS011;3145;42.726;23.342;2023-09-08T04:20:13;12.97;;;10.77;;
6223;SDS011;3145;42.726;23.342;2023-09-08T04:22:40;14.97;;;10.40;;
6223;SDS011;3145;42.726;23.342;2023-09-08T04:25:07;14.73;;;11.03;;
6223;SDS011;3145;42.726;23.342;2023-09-08T04:27:35;15.43;;;11.40;;
6223;SDS011;3145;42.726;23.342;2023-09-08T04:30:02;12.70;;;11.43;;
6223;SDS011;3145;42.726;23.342;2023-09-08T04:32:29;12.67;;;11.47;;
6223;SDS011;3145;42.726;23.342;2023-09-08T04:34:57;15.77;;;11.13;;
6223;SDS011;3145;42.726;23.342;2023-09-08T04:37:24;16.17;;;11.43;;
6223;SDS011;3145;42.726;23.342;2023-09-08T04:39:50;13.33;;;11.70;;
6223;SDS011;3145;42.726;23.342;2023-09-08T04:42:17;14.90;;;10.83;;
6223;SDS011;3145;42.726;23.342;2023-09-08T04:44:44;11.73;;;10.53;;
6223;SDS011;3145;42.726;23.342;2023-09-08T04:47:10;14.07;;;10.93;;
6223;SDS011;3145;42.726;23.342;2023-09-08T04:49:37;16.47;;;11.77;;
6223;SDS011;3145;42.726;23.342;2023-09-08T04:52:05;12.30;;;10.63;;
6223;SDS011;3145;42.726;23.342;2023-09-08T04:54:32;11.83;;;10.50;;
6223;SDS011;3145;42.726;23.342;2023-09-08T04:56:59;12.90;;;10.70;;
6223;SDS011;3145;42.726;23.342;2023-09-08T04:59:25;13.67;;;10.37;;
6223;SDS011;3145;42.726;23.342;2023-09-08T05:01:52;14.13;;;10.60;;
6223;SDS011;3145;42.726;23.342;2023-09-08T05:04:19;14.07;;;9.97;;
6223;SDS011;3145;42.726;23.342;2023-09-08T05:06:46;11.07;;;9.97;;
6223;SDS011;3145;42.726;23.342;2023-09-08T05:09:14;17.37;;;10.30;;
6223;SDS011;3145;42.726;23.342;2023-09-08T05:11:40;17.07;;;11.23;;
6223;SDS011;3145;42.726;23.342;2023-09-08T05:14:07;17.03;;;10.23;;
6223;SDS011;3145;42.726;23.342;2023-09-08T05:16:34;13.80;;;10.40;;
6223;SDS011;3145;42.726;23.342;2023-09-08T05:19:10;20.37;;;10.90;;
6223;SDS011;3145;42.726;23.342;2023-09-08T05:21:37;18.23;;;10.93;;
6223;SDS011;3145;42.726;23.342;2023-09-08T05:24:03;28.53;;;10.90;;
6223;SDS011;3145;42.726;23.342;2023-09-08T05:26:32;18.73;;;11.93;;
6223;SDS011;3145;42.726;23.342;2023-09-08T05:28:59;18.30;;;10.70;;
6223;SDS011;3145;42.726;23.342;2023-09-08T05:31:26;13.87;;;10.47;;
6223;SDS011;3145;42.726;23.342;2023-09-08T05:33:53;15.83;;;10.77;;
6223;SDS011;3145;42.726;23.342;2023-09-08T05:36:20;17.23;;;10.60;;
6223;SDS011;3145;42.726;23.342;2023-09-08T05:38:46;15.05;;;13.02;;
6223;SDS011;3145;42.726;23.342;2023-09-08T05:41:13;22.05;;;14.52;;
6223;SDS011;3145;42.726;23.342;2023-09-08T05:43:41;13.33;;;11.67;;
6223;SDS011;3145;42.726;23.342;2023-09-08T05:46:08;14.25;;;9.85;;
6223;SDS011;3145;42.726;23.342;2023-09-08T05:48:35;16.30;;;9.18;;
6223;SDS011;3145;42.726;23.342;2023-09-08T05:51:01;12.18;;;10.27;;
6223;SDS011;3145;42.726;23.342;2023-09-08T05:53:28;17.80;;;9.63;;
6223;SDS011;3145;42.726;23.342;2023-09-08T05:55:55;11.70;;;8.90;;
6223;SDS011;3145;42.726;23.342;2023-09-08T05:58:21;11.70;;;9.35;;
6223;SDS011;3145;42.726;23.342;2023-09-08T06:00:53;10.68;;;8.80;;
6223;SDS011;3145;42.726;23.342;2023-09-08T06:03:20;10.25;;;8.88;;
6223;SDS011;3145;42.726;23.342;2023-09-08T06:05:47;14.70;;;8.25;;
6223;SDS011;3145;42.726;23.342;2023-09-08T06:08:13;8.67;;;7.80;;
6223;SDS011;3145;42.726;23.342;2023-09-08T06:10:40;9.60;;;7.47;;
6223;SDS011;3145;42.726;23.342;2023-09-08T06:13:07;11.03;;;7.50;;
6223;SDS011;3145;42.726;23.342;2023-09-08T06:15:34;10.63;;;6.50;;
6223;SDS011;3145;42.726;23.342;2023-09-08T06:18:02;9.73;;;6.83;;
6223;SDS011;3145;42.726;23.342;2023-09-08T06:20:29;6.70;;;5.93;;
6223;SDS011;3145;42.726;23.342;2023-09-08T06:22:55;7.07;;;6.38;;
6223;SDS011;3145;42.726;23.342;2023-09-08T06:25:22;8.60;;;6.45;;
6223;SDS011;3145;42.726;23.342;2023-09-08T06:27:49;12.47;;;6.03;;
6223;SDS011;3145;42.726;23.342;2023-09-08T06:30:15;7.18;;;6.43;;
6223;SDS011;3145;42.726;23.342;2023-09-08T06:32:43;6.82;;;6.15;;
6223;SDS011;3145;42.726;23.342;2023-09-08T06:35:11;6.20;;;5.70;;
6223;SDS011;3145;42.726;23.342;2023-09-08T06:37:38;14.80;;;6.40;;
6223;SDS011;3145;42.726;23.342;2023-09-08T06:40:05;7.53;;;5.18;;
6223;SDS011;3145;42.726;23.342;2023-09-08T06:42:32;6.30;;;5.18;;
6223;SDS011;3145;42.726;23.342;2023-09-08T06:44:59;8.48;;;5.10;;
6223;SDS011;3145;42.726;23.342;2023-09-08T06:47:26;7.07;;;5.22;;
6223;SDS011;3145;42.726;23.342;2023-09-08T06:49:53;8.27;;;5.47;;
6223;SDS011;3145;42.726;23.342;2023-09-08T06:52:21;5.13;;;4.63;;
6223;SDS011;3145;42.726;23.342;2023-09-08T06:54:48;5.28;;;4.63;;
6223;SDS011;3145;42.726;23.342;2023-09-08T06:57:17;5.97;;;5.40;;
6223;SDS011;3145;42.726;23.342;2023-09-08T06:59:44;6.75;;;5.13;;
6223;SDS011;3145;42.726;23.342;2023-09-08T07:02:11;6.32;;;5.65;;
6223;SDS011;3145;42.726;23.342;2023-09-08T07:04:38;8.75;;;5.57;;
6223;SDS011;3145;42.726;23.342;2023-09-08T07:07:05;6.28;;;5.78;;
6223;SDS011;3145;42.726;23.342;2023-09-08T07:09:34;13.00;;;5.43;;
6223;SDS011;3145;42.726;23.342;2023-09-08T07:12:02;5.65;;;5.15;;
6223;SDS011;3145;42.726;23.342;2023-09-08T07:14:29;7.97;;;5.20;;
6223;SDS011;3145;42.726;23.342;2023-09-08T07:16:56;6.25;;;4.97;;
6223;SDS011;3145;42.726;23.342;2023-09-08T07:19:23;5.40;;;4.93;;
6223;SDS011;3145;42.726;23.342;2023-09-08T07:21:50;9.18;;;5.72;;
6223;SDS011;3145;42.726;23.342;2023-09-08T07:24:17;6.72;;;6.13;;
6223;SDS011;3145;42.726;23.342;2023-09-08T07:26:45;5.65;;;4.90;;
6223;SDS011;3145;42.726;23.342;2023-09-08T07:29:12;6.10;;;5.15;;
6223;SDS011;3145;42.726;23.342;2023-09-08T07:31:39;12.05;;;5.28;;
6223;SDS011;3145;42.726;23.342;2023-09-08T07:34:05;5.30;;;3.88;;
6223;SDS011;3145;42.726;23.342;2023-09-08T07:36:32;3.72;;;3.33;;
6223;SDS011;3145;42.726;23.342;2023-09-08T07:39:00;6.82;;;3.58;;
6223;SDS011;3145;42.726;23.342;2023-09-08T07:41:26;5.30;;;3.65;;
6223;SDS011;3145;42.726;23.342;2023-09-08T07:43:54;4.80;;;3.85;;
6223;SDS011;3145;42.726;23.342;2023-09-08T07:46:21;4.95;;;3.90;;
6223;SDS011;3145;42.726;23.342;2023-09-08T07:48:49;6.88;;;4.15;;
6223;SDS011;3145;42.726;23.342;2023-09-08T07:51:16;8.80;;;3.63;;
6223;SDS011;3145;42.726;23.342;2023-09-08T07:53:43;6.80;;;3.67;;
6223;SDS011;3145;42.726;23.342;2023-09-08T07:56:09;4.82;;;3.60;;
6223;SDS011;3145;42.726;23.342;2023-09-08T07:58:36;6.63;;;3.63;;
6223;SDS011;3145;42.726;23.342;2023-09-08T08:01:06;5.97;;;3.83;;
6223;SDS011;3145;42.726;23.342;2023-09-08T08:03:32;8.35;;;4.22;;
6223;SDS011;3145;42.726;23.342;2023-09-08T08:06:00;5.35;;;3.60;;
6223;SDS011;3145;42.726;23.342;2023-09-08T08:08:27;7.93;;;4.05;;
6223;SDS011;3145;42.726;23.342;2023-09-08T08:10:54;4.55;;;3.95;;
6223;SDS011;3145;42.726;23.342;2023-09-08T08:13:21;8.65;;;3.88;;
6223;SDS011;3145;42.726;23.342;2023-09-08T08:15:47;3.40;;;3.13;;
6223;SDS011;3145;42.726;23.342;2023-09-08T08:18:16;6.22;;;3.58;;
6223;SDS011;3145;42.726;23.342;2023-09-08T08:20:43;4.45;;;3.70;;
6223;SDS011;3145;42.726;23.342;2023-09-08T08:23:10;8.13;;;3.38;;
6223;SDS011;3145;42.726;23.342;2023-09-08T08:25:36;4.93;;;3.25;;
6223;SDS011;3145;42.726;23.342;2023-09-08T08:28:03;5.93;;;5.43;;
6223;SDS011;3145;42.726;23.342;2023-09-08T08:30:30;8.07;;;3.38;;
6223;SDS011;3145;42.726;23.342;2023-09-08T08:32:58;6.72;;;3.67;;
6223;SDS011;3145;42.726;23.342;2023-09-08T08:35:26;8.60;;;5.10;;
6223;SDS011;3145;42.726;23.342;2023-09-08T08:37:53;5.35;;;3.47;;
6223;SDS011;3145;42.726;23.342;2023-09-08T08:40:20;4.30;;;3.90;;
6223;SDS011;3145;42.726;23.342;2023-09-08T08:42:51;6.53;;;4.30;;
6223;SDS011;3145;42.726;23.342;2023-09-08T08:45:22;9.15;;;5.40;;
6223;SDS011;3145;42.726;23.342;2023-09-08T08:47:49;7.63;;;5.38;;
6223;SDS011;3145;42.726;23.342;2023-09-08T08:50:16;6.43;;;5.80;;
6223;SDS011;3145;42.726;23.342;2023-09-08T08:52:45;4.63;;;4.22;;
6223;SDS011;3145;42.726;23.342;2023-09-08T08:55:12;8.30;;;7.47;;
6223;SDS011;3145;42.726;23.342;2023-09-08T08:57:40;12.32;;;10.93;;
6223;SDS011;3145;42.726;23.342;2023-09-08T09:00:08;3.90;;;3.60;;
6223;SDS011;3145;42.726;23.342;2023-09-08T09:02:39;6.55;;;4.75;;
6223;SDS011;3145;42.726;23.342;2023-09-08T09:05:07;6.90;;;6.20;;
6223;SDS011;3145;42.726;23.342;2023-09-08T09:07:35;6.13;;;4.18;;
6223;SDS011;3145;42.726;23.342;2023-09-08T09:10:04;6.47;;;5.78;;
6223;SDS011;3145;42.726;23.342;2023-09-08T09:12:33;4.38;;;4.03;;
6223;SDS011;3145;42.726;23.342;2023-09-08T09:15:00;5.78;;;4.78;;
6223;SDS011;3145;42.726;23.342;2023-09-08T09:17:29;8.63;;;6.28;;
6223;SDS011;3145;42.726;23.342;2023-09-08T09:22:43;4.28;;;3.63;;
6223;SDS011;3145;42.726;23.342;2023-09-08T09:25:11;4.13;;;3.83;;
6223;SDS011;3145;42.726;23.342;2023-09-08T09:27:49;3.70;;;3.40;;
6223;SDS011;3145;42.726;23.342;2023-09-08T09:30:17;5.72;;;3.45;;
6223;SDS011;3145;42.726;23.342;2023-09-08T09:32:43;5.68;;;3.70;;
6223;SDS011;3145;42.726;23.342;2023-09-08T09:35:10;7.20;;;4.07;;
6223;SDS011;3145;42.726;23.342;2023-09-08T09:37:38;7.35;;;4.30;;
6223;SDS011;3145;42.726;23.342;2023-09-08T09:40:07;4.55;;;3.78;;
6223;SDS011;3145;42.726;23.342;2023-09-08T09:42:38;7.43;;;4.32;;
6223;SDS011;3145;42.726;23.342;2023-09-08T09:45:06;4.97;;;3.55;;
6223;SDS011;3145;42.726;23.342;2023-09-08T09:47:34;10.30;;;4.15;;
6223;SDS011;3145;42.726;23.342;2023-09-08T09:50:01;4.38;;;3.65;;
6223;SDS011;3145;42.726;23.342;2023-09-08T09:52:28;6.50;;;4.05;;
6223;SDS011;3145;42.726;23.342;2023-09-08T09:54:56;5.25;;;4.03;;
6223;SDS011;3145;42.726;23.342;2023-09-08T09:57:25;5.60;;;4.60;;
6223;SDS011;3145;42.726;23.342;2023-09-08T09:59:54;4.85;;;3.83;;
6223;SDS011;3145;42.726;23.342;2023-09-08T10:02:22;5.05;;;3.58;;
6223;SDS011;3145;42.726;23.342;2023-09-08T10:04:50;3.95;;;3.65;;
6223;SDS011;3145;42.726;23.342;2023-09-08T10:07:19;6.57;;;4.47;;
6223;SDS011;3145;42.726;23.342;2023-09-08T10:09:47;6.70;;;3.85;;
6223;SDS011;3145;42.726;23.342;2023-09-08T10:12:14;4.63;;;3.95;;
6223;SDS011;3145;42.726;23.342;2023-09-08T10:14:42;4.25;;;3.90;;
6223;SDS011;3145;42.726;23.342;2023-09-08T10:17:11;4.65;;;3.78;;
6223;SDS011;3145;42.726;23.342;2023-09-08T10:19:43;5.97;;;4.38;;
6223;SDS011;3145;42.726;23.342;2023-09-08T10:22:16;7.95;;;4.55;;
6223;SDS011;3145;42.726;23.342;2023-09-08T10:24:47;5.65;;;3.85;;
6223;SDS011;3145;42.726;23.342;2023-09-08T10:27:16;6.78;;;4.00;;
6223;SDS011;3145;42.726;23.342;2023-09-08T10:29:46;5.05;;;4.10;;
6223;SDS011;3145;42.726;23.342;2023-09-08T10:32:15;4.30;;;4.00;;
6223;SDS011;3145;42.726;23.342;2023-09-08T10:34:44;4.82;;;4.32;;
6223;SDS011;3145;42.726;23.342;2023-09-08T10:37:18;9.63;;;4.65;;
6223;SDS011;3145;42.726;23.342;2023-09-08T10:39:46;6.05;;;3.75;;
6223;SDS011;3145;42.726;23.342;2023-09-08T10:42:22;3.70;;;3.35;;
6223;SDS011;3145;42.726;23.342;2023-09-08T10:44:57;15.27;;;10.40;;
6223;SDS011;3145;42.726;23.342;2023-09-08T10:47:32;10.35;;;5.47;;
6223;SDS011;3145;42.726;23.342;2023-09-08T10:50:01;5.72;;;4.82;;
6223;SDS011;3145;42.726;23.342;2023-09-08T10:52:30;8.52;;;3.97;;
6223;SDS011;3145;42.726;23.342;2023-09-08T10:55:00;10.77;;;4.55;;
6223;SDS011;3145;42.726;23.342;2023-09-08T10:57:27;6.35;;;4.38;;
6223;SDS011;3145;42.726;23.342;2023-09-08T10:59:56;5.28;;;3.90;;
6223;SDS011;3145;42.726;23.342;2023-09-08T11:02:34;12.95;;;3.95;;
6223;SDS011;3145;42.726;23.342;2023-09-08T11:05:01;4.32;;;3.72;;
6223;SDS011;3145;42.726;23.342;2023-09-08T11:07:30;13.80;;;4.40;;
6223;SDS011;3145;42.726;23.342;2023-09-08T11:09:56;6.82;;;3.70;;
6223;SDS011;3145;42.726;23.342;2023-09-08T11:12:25;6.63;;;4.50;;
6223;SDS011;3145;42.726;23.342;2023-09-08T11:14:53;5.13;;;4.40;;
6223;SDS011;3145;42.726;23.342;2023-09-08T11:17:20;5.18;;;4.68;;
6223;SDS011;3145;42.726;23.342;2023-09-08T11:19:48;10.65;;;4.38;;
6223;SDS011;3145;42.726;23.342;2023-09-08T11:22:16;5.55;;;4.68;;
6223;SDS011;3145;42.726;23.342;2023-09-08T11:24:44;5.18;;;4.07;;
6223;SDS011;3145;42.726;23.342;2023-09-08T11:27:10;4.85;;;4.13;;
6223;SDS011;3145;42.726;23.342;2023-09-08T11:29:37;5.47;;;4.97;;
6223;SDS011;3145;42.726;23.342;2023-09-08T11:32:06;10.43;;;4.47;;
6223;SDS011;3145;42.726;23.342;2023-09-08T11:34:33;7.40;;;4.68;;
6223;SDS011;3145;42.726;23.342;2023-09-08T11:37:06;4.80;;;4.40;;
6223;SDS011;3145;42.726;23.342;2023-09-08T11:39:35;4.43;;;4.03;;
6223;SDS011;3145;42.726;23.342;2023-09-08T11:42:03;6.18;;;4.45;;
6223;SDS011;3145;42.726;23.342;2023-09-08T11:44:31;4.63;;;3.83;;
6223;SDS011;3145;42.726;23.342;2023-09-08T11:46:58;5.97;;;4.45;;
6223;SDS011;3145;42.726;23.342;2023-09-08T11:49:24;4.82;;;4.30;;
6223;SDS011;3145;42.726;23.342;2023-09-08T11:51:51;6.07;;;3.72;;
6223;SDS011;3145;42.726;23.342;2023-09-08T11:54:19;5.82;;;3.95;;
6223;SDS011;3145;42.726;23.342;2023-09-08T11:56:46;5.63;;;3.75;;
6223;SDS011;3145;42.726;23.342;2023-09-08T11:59:13;5.40;;;4.53;;
6223;SDS011;3145;42.726;23.342;2023-09-08T12:01:40;4.82;;;4.32;;
6223;SDS011;3145;42.726;23.342;2023-09-08T12:04:06;5.22;;;3.90;;
6223;SDS011;3145;42.726;23.342;2023-09-08T12:06:43;3.58;;;3.35;;
6223;SDS011;3145;42.726;23.342;2023-09-08T12:09:10;6.35;;;4.70;;
6223;SDS011;3145;42.726;23.342;2023-09-08T12:11:39;5.72;;;4.00;;
6223;SDS011;3145;42.726;23.342;2023-09-08T12:14:08;4.22;;;3.83;;
6223;SDS011;3145;42.726;23.342;2023-09-08T12:16:36;5.05;;;3.80;;
6223;SDS011;3145;42.726;23.342;2023-09-08T12:19:03;5.97;;;3.50;;
6223;SDS011;3145;42.726;23.342;2023-09-08T12:21:29;5.53;;;3.55;;
6223;SDS011;3145;42.726;23.342;2023-09-08T12:23:57;4.03;;;3.65;;
6223;SDS011;3145;42.726;23.342;2023-09-08T12:26:24;4.13;;;3.83;;
6223;SDS011;3145;42.726;23.342;2023-09-08T12:28:52;4.22;;;3.90;;
6223;SDS011;3145;42.726;23.342;2023-09-08T12:31:19;3.70;;;3.40;;
6223;SDS011;3145;42.726;23.342;2023-09-08T12:33:46;4.35;;;4.05;;
6223;SDS011;3145;42.726;23.342;2023-09-08T12:36:13;9.70;;;4.25;;
6223;SDS011;3145;42.726;23.342;2023-09-08T12:38:46;4.72;;;4.43;;
6223;SDS011;3145;42.726;23.342;2023-09-08T12:41:14;3.92;;;3.55;;
6223;SDS011;3145;42.726;23.342;2023-09-08T12:43:41;6.47;;;4.70;;
6223;SDS011;3145;42.726;23.342;2023-09-08T12:46:09;7.43;;;3.75;;
6223;SDS011;3145;42.726;23.342;2023-09-08T12:48:35;4.45;;;4.05;;
6223;SDS011;3145;42.726;23.342;2023-09-08T12:51:02;4.63;;;4.32;;
6223;SDS011;3145;42.726;23.342;2023-09-08T12:53:29;10.23;;;4.70;;
6223;SDS011;3145;42.726;23.342;2023-09-08T12:55:59;4.53;;;4.13;;
6223;SDS011;3145;42.726;23.342;2023-09-08T12:58:26;6.07;;;4.45;;
6223;SDS011;3145;42.726;23.342;2023-09-08T13:00:53;4.63;;;4.13;;
6223;SDS011;3145;42.726;23.342;2023-09-08T13:03:22;4.20;;;3.90;;
6223;SDS011;3145;42.726;23.342;2023-09-08T13:05:49;4.55;;;4.25;;
6223;SDS011;3145;42.726;23.342;2023-09-08T13:08:16;5.03;;;4.13;;
6223;SDS011;3145;42.726;23.342;2023-09-08T13:10:42;6.53;;;4.28;;
6223;SDS011;3145;42.726;23.342;2023-09-08T13:13:09;4.20;;;3.88;;
6223;SDS011;3145;42.726;23.342;2023-09-08T13:15:36;4.40;;;4.00;;
6223;SDS011;3145;42.726;23.342;2023-09-08T13:18:03;4.20;;;3.80;;
6223;SDS011;3145;42.726;23.342;2023-09-08T13:20:32;5.45;;;3.65;;
6223;SDS011;3145;42.726;23.342;2023-09-08T13:22:58;4.15;;;3.80;;
6223;SDS011;3145;42.726;23.342;2023-09-08T13:25:25;4.10;;;3.80;;
6223;SDS011;3145;42.726;23.342;2023-09-08T13:27:52;5.68;;;3.88;;
6223;SDS011;3145;42.726;23.342;2023-09-08T13:30:19;5.35;;;4.20;;
6223;SDS011;3145;42.726;23.342;2023-09-08T13:32:47;4.45;;;4.13;;
6223;SDS011;3145;42.726;23.342;2023-09-08T13:35:14;11.85;;;4.50;;
6223;SDS011;3145;42.726;23.342;2023-09-08T13:37:42;4.22;;;3.92;;
6223;SDS011;3145;42.726;23.342;2023-09-08T13:40:08;7.00;;;4.40;;
6223;SDS011;3145;42.726;23.342;2023-09-08T13:42:35;6.93;;;3.97;;
6223;SDS011;3145;42.726;23.342;2023-09-08T13:45:02;6.82;;;4.10;;
6223;SDS011;3145;42.726;23.342;2023-09-08T13:47:29;4.20;;;3.80;;
6223;SDS011;3145;42.726;23.342;2023-09-08T13:49:56;6.72;;;3.85;;
6223;SDS011;3145;42.726;23.342;2023-09-08T13:52:23;7.72;;;4.05;;
6223;SDS011;3145;42.726;23.342;2023-09-08T13:54:51;4.65;;;3.92;;
6223;SDS011;3145;42.726;23.342;2023-09-08T13:57:17;5.68;;;4.90;;
6223;SDS011;3145;42.726;23.342;2023-09-08T13:59:46;6.28;;;4.85;;
6223;SDS011;3145;42.726;23.342;2023-09-08T14:02:12;4.53;;;3.97;;
6223;SDS011;3145;42.726;23.342;2023-09-08T14:04:39;3.95;;;3.67;;
6223;SDS011;3145;42.726;23.342;2023-09-08T14:07:07;3.78;;;3.50;;
6223;SDS011;3145;42.726;23.342;2023-09-08T14:09:34;4.40;;;3.92;;
6223;SDS011;3145;42.726;23.342;2023-09-08T14:12:02;5.38;;;3.55;;
6223;SDS011;3145;42.726;23.342;2023-09-08T14:14:29;6.47;;;3.80;;
6223;SDS011;3145;42.726;23.342;2023-09-08T14:16:56;4.38;;;3.92;;
6223;SDS011;3145;42.726;23.342;2023-09-08T14:19:23;3.85;;;3.53;;
6223;SDS011;3145;42.726;23.342;2023-09-08T14:21:50;4.00;;;3.70;;
6223;SDS011;3145;42.726;23.342;2023-09-08T14:24:16;3.80;;;3.50;;
6223;SDS011;3145;42.726;23.342;2023-09-08T14:26:43;6.78;;;3.97;;
6223;SDS011;3145;42.726;23.342;2023-09-08T14:29:11;4.38;;;3.63;;
6223;SDS011;3145;42.726;23.342;2023-09-08T14:31:38;10.45;;;4.15;;
6223;SDS011;3145;42.726;23.342;2023-09-08T14:34:05;4.60;;;4.18;;
6223;SDS011;3145;42.726;23.342;2023-09-08T14:36:31;3.78;;;3.47;;
6223;SDS011;3145;42.726;23.342;2023-09-08T14:38:58;4.40;;;4.00;;
6223;SDS011;3145;42.726;23.342;2023-09-08T14:41:25;4.07;;;3.78;;
6223;SDS011;3145;42.726;23.342;2023-09-08T14:43:52;3.92;;;3.63;;
6223;SDS011;3145;42.726;23.342;2023-09-08T14:46:20;4.22;;;3.75;;
6223;SDS011;3145;42.726;23.342;2023-09-08T14:48:47;4.18;;;3.80;;
6223;SDS011;3145;42.726;23.342;2023-09-08T14:51:14;5.78;;;3.80;;
6223;SDS011;3145;42.726;23.342;2023-09-08T14:53:41;7.68;;;4.07;;
6223;SDS011;3145;42.726;23.342;2023-09-08T14:56:07;4.20;;;3.88;;
6223;SDS011;3145;42.726;23.342;2023-09-08T14:58:34;5.03;;;4.20;;